sensor_id;sensor_type;location;lat;lon;timestamp;P1;P2;P0
77692;PMS5003;66984;47.404;18.836;2023-03-14T01:00:10;20.00;20.00;10.00
77692;PMS5003;66984;47.404;18.836;2023-03-14T01:01:15;17.00;17.00;10.00
77692;PMS5003;66984;47.404;18.836;2023-03-14T01:02:20;18.50;18.25;9.00
77692;PMS5003;66984;47.404;18.836;2023-03-14T01:03:23;20.00;20.00;11.00
77692;PMS5003;66984;47.404;18.836;2023-03-14T01:04:26;20.00;19.00;12.00
77692;PMS5003;66984;47.404;18.836;2023-03-14T01:05:29;18.50;18.00;9.00
77692;PMS5003;66984;47.404;18.836;2023-03-14T01:06:32;18.50;18.00;10.00
77692;PMS5003;66984;47.404;18.836;2023-03-14T01:07:37;22.00;20.00;10.00
77692;PMS5003;66984;47.404;18.836;2023-03-14T01:08:40;21.00;19.00;11.00
77692;PMS5003;66984;47.404;18.836;2023-03-14T01:09:43;23.00;20.75;11.00
77692;PMS5003;66984;47.404;18.836;2023-03-14T01:10:46;20.00;18.50;12.00
77692;PMS5003;66984;47.404;18.836;2023-03-14T01:11:49;22.00;21.00;12.00
77692;PMS5003;66984;47.404;18.836;2023-03-14T01:12:52;20.75;19.50;11.00
77692;PMS5003;66984;47.404;18.836;2023-03-14T01:13:55;21.00;19.25;11.00
77692;PMS5003;66984;47.404;18.836;2023-03-14T01:14:58;20.00;19.00;12.00
77692;PMS5003;66984;47.404;18.836;2023-03-14T01:16:04;23.50;20.00;12.75
77692;PMS5003;66984;47.404;18.836;2023-03-14T01:17:09;21.00;19.00;14.00
77692;PMS5003;66984;47.404;18.836;2023-03-14T01:18:12;19.00;18.50;14.00
77692;PMS5003;66984;47.404;18.836;2023-03-14T01:19:14;18.00;16.50;12.00
77692;PMS5003;66984;47.404;18.836;2023-03-14T01:20:17;22.75;18.50;10.00
77692;PMS5003;66984;47.404;18.836;2023-03-14T01:21:21;25.00;21.00;12.00
77692;PMS5003;66984;47.404;18.836;2023-03-14T01:22:26;23.75;22.00;11.00
77692;PMS5003;66984;47.404;18.836;2023-03-14T01:23:29;22.00;21.00;12.00
77692;PMS5003;66984;47.404;18.836;2023-03-14T01:24:31;19.00;18.00;11.00
77692;PMS5003;66984;47.404;18.836;2023-03-14T01:25:34;19.75;18.50;12.00
77692;PMS5003;66984;47.404;18.836;2023-03-14T01:26:42;21.25;20.25;12.00
77692;PMS5003;66984;47.404;18.836;2023-03-14T01:27:45;20.00;19.00;11.00
77692;PMS5003;66984;47.404;18.836;2023-03-14T01:28:48;19.00;19.00;12.00
77692;PMS5003;66984;47.404;18.836;2023-03-14T01:29:54;19.00;19.00;12.00
77692;PMS5003;66984;47.404;18.836;2023-03-14T01:31:01;20.25;20.25;12.00
77692;PMS5003;66984;47.404;18.836;2023-03-14T01:32:05;21.00;18.00;11.00
77692;PMS5003;66984;47.404;18.836;2023-03-14T01:33:08;21.00;19.00;9.00
77692;PMS5003;66984;47.404;18.836;2023-03-14T01:34:13;21.00;19.00;9.00
77692;PMS5003;66984;47.404;18.836;2023-03-14T01:35:16;19.00;18.50;10.00
77692;PMS5003;66984;47.404;18.836;2023-03-14T01:36:19;19.00;19.00;10.25
77692;PMS5003;66984;47.404;18.836;2023-03-14T01:37:21;18.50;18.50;9.00
77692;PMS5003;66984;47.404;18.836;2023-03-14T01:38:24;19.00;18.00;10.00
77692;PMS5003;66984;47.404;18.836;2023-03-14T01:39:27;20.50;18.50;9.00
77692;PMS5003;66984;47.404;18.836;2023-03-14T01:40:30;18.00;16.75;9.00
77692;PMS5003;66984;47.404;18.836;2023-03-14T01:41:33;18.50;18.00;9.25
77692;PMS5003;66984;47.404;18.836;2023-03-14T01:42:35;19.25;17.25;10.00
77692;PMS5003;66984;47.404;18.836;2023-03-14T01:43:38;18.50;17.75;9.00
77692;PMS5003;66984;47.404;18.836;2023-03-14T01:47:06;21.00;18.00;9.00
77692;PMS5003;66984;47.404;18.836;2023-03-14T01:48:09;21.50;19.00;9.50
77692;PMS5003;66984;47.404;18.836;2023-03-14T01:50:23;18.00;17.25;9.00
77692;PMS5003;66984;47.404;18.836;2023-03-14T01:51:30;18.50;18.00;9.00
77692;PMS5003;66984;47.404;18.836;2023-03-14T01:52:43;18.00;18.00;8.00
77692;PMS5003;66984;47.404;18.836;2023-03-14T01:53:49;18.50;18.00;8.00
77692;PMS5003;66984;47.404;18.836;2023-03-14T01:55:14;19.00;18.00;9.25
77692;PMS5003;66984;47.404;18.836;2023-03-14T01:56:19;18.00;18.00;9.00
77692;PMS5003;66984;47.404;18.836;2023-03-14T01:57:29;18.00;17.00;9.00
77692;PMS5003;66984;47.404;18.836;2023-03-14T01:58:35;19.50;18.00;10.00
77692;PMS5003;66984;47.404;18.836;2023-03-14T01:59:40;18.00;18.00;11.00
77692;PMS5003;66984;47.404;18.836;2023-03-14T02:00:47;20.00;18.00;10.25
77692;PMS5003;66984;47.404;18.836;2023-03-14T02:01:50;20.00;20.00;10.75
77692;PMS5003;66984;47.404;18.836;2023-03-14T02:02:55;19.50;19.00;12.00
77692;PMS5003;66984;47.404;18.836;2023-03-14T02:04:02;19.00;19.00;10.00
77692;PMS5003;66984;47.404;18.836;2023-03-14T02:05:07;18.00;18.00;10.00
77692;PMS5003;66984;47.404;18.836;2023-03-14T02:06:11;18.00;18.00;9.00
77692;PMS5003;66984;47.404;18.836;2023-03-14T02:07:34;19.00;19.00;9.00
77692;PMS5003;66984;47.404;18.836;2023-03-14T02:08:43;21.00;20.00;9.00
77692;PMS5003;66984;47.404;18.836;2023-03-14T02:09:49;21.25;19.50;11.00
77692;PMS5003;66984;47.404;18.836;2023-03-14T02:10:53;20.75;19.50;11.25
77692;PMS5003;66984;47.404;18.836;2023-03-14T02:11:56;20.75;20.00;11.00
77692;PMS5003;66984;47.404;18.836;2023-03-14T02:13:00;19.50;19.25;11.00
77692;PMS5003;66984;47.404;18.836;2023-03-14T02:14:05;20.00;19.00;10.00
77692;PMS5003;66984;47.404;18.836;2023-03-14T02:15:15;19.00;18.25;12.00
77692;PMS5003;66984;47.404;18.836;2023-03-14T02:16:17;19.25;18.00;10.25
77692;PMS5003;66984;47.404;18.836;2023-03-14T02:17:20;18.25;17.75;10.25
77692;PMS5003;66984;47.404;18.836;2023-03-14T02:18:25;19.00;18.00;11.00
77692;PMS5003;66984;47.404;18.836;2023-03-14T02:19:35;20.00;20.00;10.00
77692;PMS5003;66984;47.404;18.836;2023-03-14T02:22:08;20.00;20.00;11.00
77692;PMS5003;66984;47.404;18.836;2023-03-14T02:23:13;21.75;21.75;12.00
77692;PMS5003;66984;47.404;18.836;2023-03-14T02:24:24;22.00;21.75;12.00
77692;PMS5003;66984;47.404;18.836;2023-03-14T02:25:52;21.00;20.25;13.00
77692;PMS5003;66984;47.404;18.836;2023-03-14T02:27:10;22.00;20.00;12.50
77692;PMS5003;66984;47.404;18.836;2023-03-14T02:28:13;21.00;19.00;10.50
77692;PMS5003;66984;47.404;18.836;2023-03-14T02:29:16;23.00;21.00;11.75
77692;PMS5003;66984;47.404;18.836;2023-03-14T02:30:24;22.00;21.00;13.00
77692;PMS5003;66984;47.404;18.836;2023-03-14T02:31:29;21.00;21.00;13.00
77692;PMS5003;66984;47.404;18.836;2023-03-14T02:32:32;21.25;20.00;13.00
77692;PMS5003;66984;47.404;18.836;2023-03-14T02:33:38;22.25;20.50;12.00
77692;PMS5003;66984;47.404;18.836;2023-03-14T02:34:41;20.00;19.25;12.25
77692;PMS5003;66984;47.404;18.836;2023-03-14T02:35:49;18.75;18.00;12.00
77692;PMS5003;66984;47.404;18.836;2023-03-14T02:37:01;21.50;21.00;12.00
77692;PMS5003;66984;47.404;18.836;2023-03-14T02:39:37;23.25;21.00;11.25
77692;PMS5003;66984;47.404;18.836;2023-03-14T02:40:41;22.00;21.75;10.00
77692;PMS5003;66984;47.404;18.836;2023-03-14T02:41:44;20.00;19.00;11.00
77692;PMS5003;66984;47.404;18.836;2023-03-14T02:42:48;17.50;17.50;10.00
77692;PMS5003;66984;47.404;18.836;2023-03-14T02:43:51;21.00;20.75;11.00
77692;PMS5003;66984;47.404;18.836;2023-03-14T02:44:54;19.00;19.00;12.00
77692;PMS5003;66984;47.404;18.836;2023-03-14T02:46:03;19.00;19.00;11.00
77692;PMS5003;66984;47.404;18.836;2023-03-14T02:47:08;19.50;19.00;10.00
77692;PMS5003;66984;47.404;18.836;2023-03-14T02:48:15;20.00;20.00;11.50
77692;PMS5003;66984;47.404;18.836;2023-03-14T02:49:20;22.00;20.00;12.00
77692;PMS5003;66984;47.404;18.836;2023-03-14T02:50:24;19.25;19.00;10.00
77692;PMS5003;66984;47.404;18.836;2023-03-14T02:51:31;20.00;18.00;10.00
77692;PMS5003;66984;47.404;18.836;2023-03-14T02:52:34;18.00;18.00;11.00
77692;PMS5003;66984;47.404;18.836;2023-03-14T02:53:37;21.50;19.00;10.00
77692;PMS5003;66984;47.404;18.836;2023-03-14T02:54:40;22.00;18.00;11.00
77692;PMS5003;66984;47.404;18.836;2023-03-14T02:55:49;21.00;20.00;12.00
77692;PMS5003;66984;47.404;18.836;2023-03-14T02:56:52;20.00;19.50;11.00
77692;PMS5003;66984;47.404;18.836;2023-03-14T02:57:55;21.75;18.00;10.00
77692;PMS5003;66984;47.404;18.836;2023-03-14T02:58:58;19.50;19.50;11.00
77692;PMS5003;66984;47.404;18.836;2023-03-14T03:00:01;18.00;18.00;10.00
77692;PMS5003;66984;47.404;18.836;2023-03-14T03:01:07;18.00;18.00;12.00
77692;PMS5003;66984;47.404;18.836;2023-03-14T03:02:09;18.50;18.50;11.25
77692;PMS5003;66984;47.404;18.836;2023-03-14T03:03:12;19.00;19.00;11.00
77692;PMS5003;66984;47.404;18.836;2023-03-14T03:04:16;19.00;18.00;9.00
77692;PMS5003;66984;47.404;18.836;2023-03-14T03:05:18;21.00;19.00;12.75
77692;PMS5003;66984;47.404;18.836;2023-03-14T03:06:21;21.00;18.00;12.00
77692;PMS5003;66984;47.404;18.836;2023-03-14T03:07:24;21.00;20.00;12.25
77692;PMS5003;66984;47.404;18.836;2023-03-14T03:08:27;20.00;19.00;13.00
77692;PMS5003;66984;47.404;18.836;2023-03-14T03:09:30;19.00;19.00;12.00
77692;PMS5003;66984;47.404;18.836;2023-03-14T03:10:33;20.25;18.00;10.00
77692;PMS5003;66984;47.404;18.836;2023-03-14T03:11:36;19.25;17.75;9.50
77692;PMS5003;66984;47.404;18.836;2023-03-14T03:12:39;18.50;18.50;9.00
77692;PMS5003;66984;47.404;18.836;2023-03-14T03:13:42;19.00;18.00;9.75
77692;PMS5003;66984;47.404;18.836;2023-03-14T03:14:44;18.50;18.50;9.00
77692;PMS5003;66984;47.404;18.836;2023-03-14T03:15:47;19.00;18.75;10.00
77692;PMS5003;66984;47.404;18.836;2023-03-14T03:16:50;19.00;19.00;10.00
77692;PMS5003;66984;47.404;18.836;2023-03-14T03:17:52;19.00;18.50;9.00
77692;PMS5003;66984;47.404;18.836;2023-03-14T03:18:55;19.00;19.00;9.00
77692;PMS5003;66984;47.404;18.836;2023-03-14T03:19:58;19.00;19.00;9.00
77692;PMS5003;66984;47.404;18.836;2023-03-14T03:21:01;20.00;19.00;8.00
77692;PMS5003;66984;47.404;18.836;2023-03-14T03:22:05;19.75;18.50;8.75
77692;PMS5003;66984;47.404;18.836;2023-03-14T03:23:08;22.00;19.00;10.00
77692;PMS5003;66984;47.404;18.836;2023-03-14T03:24:11;21.50;21.00;11.00
77692;PMS5003;66984;47.404;18.836;2023-03-14T03:25:14;20.50;19.00;11.00
77692;PMS5003;66984;47.404;18.836;2023-03-14T03:26:16;21.25;20.00;12.00
77692;PMS5003;66984;47.404;18.836;2023-03-14T03:27:19;18.50;18.50;11.00
77692;PMS5003;66984;47.404;18.836;2023-03-14T03:28:21;20.75;19.00;11.00
77692;PMS5003;66984;47.404;18.836;2023-03-14T03:29:24;20.25;18.50;12.00
77692;PMS5003;66984;47.404;18.836;2023-03-14T03:30:27;19.50;19.00;10.00
77692;PMS5003;66984;47.404;18.836;2023-03-14T03:31:30;19.00;19.00;10.00
77692;PMS5003;66984;47.404;18.836;2023-03-14T03:32:32;19.00;19.00;9.50
77692;PMS5003;66984;47.404;18.836;2023-03-14T03:33:36;18.50;18.00;9.00
77692;PMS5003;66984;47.404;18.836;2023-03-14T03:34:39;19.00;18.00;10.00
77692;PMS5003;66984;47.404;18.836;2023-03-14T03:35:45;19.00;18.00;10.00
77692;PMS5003;66984;47.404;18.836;2023-03-14T03:36:50;18.00;18.00;10.00
77692;PMS5003;66984;47.404;18.836;2023-03-14T03:37:53;19.75;19.75;11.00
77692;PMS5003;66984;47.404;18.836;2023-03-14T03:38:56;23.00;22.50;11.00
77692;PMS5003;66984;47.404;18.836;2023-03-14T03:39:59;23.00;21.25;11.00
77692;PMS5003;66984;47.404;18.836;2023-03-14T03:41:04;22.75;21.00;12.00
77692;PMS5003;66984;47.404;18.836;2023-03-14T03:42:08;23.00;21.00;11.00
77692;PMS5003;66984;47.404;18.836;2023-03-14T03:43:11;22.25;21.00;13.00
77692;PMS5003;66984;47.404;18.836;2023-03-14T03:44:13;23.25;22.25;12.00
77692;PMS5003;66984;47.404;18.836;2023-03-14T03:45:16;21.25;19.00;11.00
77692;PMS5003;66984;47.404;18.836;2023-03-14T03:46:19;21.00;19.00;11.00
77692;PMS5003;66984;47.404;18.836;2023-03-14T03:47:22;21.00;18.75;11.00
77692;PMS5003;66984;47.404;18.836;2023-03-14T03:48:24;22.00;19.00;10.00
77692;PMS5003;66984;47.404;18.836;2023-03-14T03:49:31;21.00;19.00;10.50
77692;PMS5003;66984;47.404;18.836;2023-03-14T03:50:33;20.25;19.25;11.00
77692;PMS5003;66984;47.404;18.836;2023-03-14T03:51:36;22.00;18.00;11.00
77692;PMS5003;66984;47.404;18.836;2023-03-14T03:52:39;21.00;19.00;10.50
77692;PMS5003;66984;47.404;18.836;2023-03-14T03:53:42;19.50;18.00;12.00
77692;PMS5003;66984;47.404;18.836;2023-03-14T03:54:45;23.50;21.00;11.50
77692;PMS5003;66984;47.404;18.836;2023-03-14T03:55:48;23.00;22.00;11.25
77692;PMS5003;66984;47.404;18.836;2023-03-14T03:56:51;22.25;22.00;11.50
77692;PMS5003;66984;47.404;18.836;2023-03-14T03:57:53;21.50;20.75;12.00
77692;PMS5003;66984;47.404;18.836;2023-03-14T03:58:57;22.00;20.00;13.00
77692;PMS5003;66984;47.404;18.836;2023-03-14T03:59:59;23.00;20.00;12.00
77692;PMS5003;66984;47.404;18.836;2023-03-14T04:01:02;23.00;23.00;14.00
77692;PMS5003;66984;47.404;18.836;2023-03-14T04:02:05;20.50;20.50;14.00
77692;PMS5003;66984;47.404;18.836;2023-03-14T04:03:08;21.00;21.00;14.00
77692;PMS5003;66984;47.404;18.836;2023-03-14T04:04:11;21.00;20.00;14.00
77692;PMS5003;66984;47.404;18.836;2023-03-14T04:05:14;22.00;20.00;13.25
77692;PMS5003;66984;47.404;18.836;2023-03-14T04:06:17;21.00;19.75;11.00
77692;PMS5003;66984;47.404;18.836;2023-03-14T04:07:20;21.75;18.50;11.00
77692;PMS5003;66984;47.404;18.836;2023-03-14T04:08:22;20.00;18.50;11.00
77692;PMS5003;66984;47.404;18.836;2023-03-14T04:09:25;20.00;19.50;10.50
77692;PMS5003;66984;47.404;18.836;2023-03-14T04:10:28;22.50;21.25;11.00
77692;PMS5003;66984;47.404;18.836;2023-03-14T04:11:31;22.00;21.00;11.75
77692;PMS5003;66984;47.404;18.836;2023-03-14T04:12:34;19.75;19.00;13.00
77692;PMS5003;66984;47.404;18.836;2023-03-14T04:13:36;20.00;18.50;12.00
77692;PMS5003;66984;47.404;18.836;2023-03-14T04:14:39;18.50;18.50;11.00
77692;PMS5003;66984;47.404;18.836;2023-03-14T04:15:43;18.50;18.50;10.75
77692;PMS5003;66984;47.404;18.836;2023-03-14T04:16:46;21.00;20.00;11.00
77692;PMS5003;66984;47.404;18.836;2023-03-14T04:17:48;19.75;19.50;11.75
77692;PMS5003;66984;47.404;18.836;2023-03-14T04:18:51;21.00;21.00;11.00
77692;PMS5003;66984;47.404;18.836;2023-03-14T04:19:54;20.00;20.00;11.00
77692;PMS5003;66984;47.404;18.836;2023-03-14T04:20:57;19.25;19.00;10.00
77692;PMS5003;66984;47.404;18.836;2023-03-14T04:22:00;20.75;19.00;11.50
77692;PMS5003;66984;47.404;18.836;2023-03-14T04:23:03;20.75;19.00;11.00
77692;PMS5003;66984;47.404;18.836;2023-03-14T04:24:05;25.50;24.25;13.75
77692;PMS5003;66984;47.404;18.836;2023-03-14T04:25:08;29.75;26.00;16.00
77692;PMS5003;66984;47.404;18.836;2023-03-14T04:26:11;28.00;25.25;16.00
77692;PMS5003;66984;47.404;18.836;2023-03-14T04:27:14;28.75;26.00;17.50
77692;PMS5003;66984;47.404;18.836;2023-03-14T04:28:17;30.00;26.50;18.00
77692;PMS5003;66984;47.404;18.836;2023-03-14T04:29:19;28.00;26.25;18.00
77692;PMS5003;66984;47.404;18.836;2023-03-14T04:30:22;30.50;27.00;17.00
77692;PMS5003;66984;47.404;18.836;2023-03-14T04:31:25;39.00;32.50;19.75
77692;PMS5003;66984;47.404;18.836;2023-03-14T04:32:28;33.75;28.25;18.00
77692;PMS5003;66984;47.404;18.836;2023-03-14T04:33:30;30.00;26.00;16.00
77692;PMS5003;66984;47.404;18.836;2023-03-14T04:34:33;25.00;23.00;14.00
77692;PMS5003;66984;47.404;18.836;2023-03-14T04:35:36;25.75;23.00;14.00
77692;PMS5003;66984;47.404;18.836;2023-03-14T04:36:38;30.00;26.75;15.50
77692;PMS5003;66984;47.404;18.836;2023-03-14T04:37:41;27.00;24.75;16.00
77692;PMS5003;66984;47.404;18.836;2023-03-14T04:38:45;27.75;26.00;16.00
77692;PMS5003;66984;47.404;18.836;2023-03-14T04:39:48;40.25;32.50;20.00
77692;PMS5003;66984;47.404;18.836;2023-03-14T04:40:50;46.75;38.00;23.50
77692;PMS5003;66984;47.404;18.836;2023-03-14T04:41:53;43.25;36.25;23.00
77692;PMS5003;66984;47.404;18.836;2023-03-14T04:42:56;38.50;32.00;22.00
77692;PMS5003;66984;47.404;18.836;2023-03-14T04:43:59;38.25;32.75;23.00
77692;PMS5003;66984;47.404;18.836;2023-03-14T04:45:01;39.75;33.00;22.25
77692;PMS5003;66984;47.404;18.836;2023-03-14T04:46:05;48.75;39.25;25.50
77692;PMS5003;66984;47.404;18.836;2023-03-14T04:47:08;44.75;36.50;23.00
77692;PMS5003;66984;47.404;18.836;2023-03-14T04:48:11;34.25;29.00;18.00
77692;PMS5003;66984;47.404;18.836;2023-03-14T04:49:14;29.25;26.00;17.00
77692;PMS5003;66984;47.404;18.836;2023-03-14T04:50:17;27.00;25.75;16.00
77692;PMS5003;66984;47.404;18.836;2023-03-14T04:51:20;27.00;24.00;15.00
77692;PMS5003;66984;47.404;18.836;2023-03-14T04:52:25;23.75;23.00;15.00
77692;PMS5003;66984;47.404;18.836;2023-03-14T04:53:29;23.00;22.00;14.00
77692;PMS5003;66984;47.404;18.836;2023-03-14T04:54:33;19.75;19.00;14.00
77692;PMS5003;66984;47.404;18.836;2023-03-14T04:55:35;23.00;23.00;15.00
77692;PMS5003;66984;47.404;18.836;2023-03-14T04:56:38;23.00;23.00;14.00
77692;PMS5003;66984;47.404;18.836;2023-03-14T04:57:41;22.00;22.00;14.00
77692;PMS5003;66984;47.404;18.836;2023-03-14T04:58:44;23.00;22.00;13.50
77692;PMS5003;66984;47.404;18.836;2023-03-14T04:59:46;23.00;23.00;14.00
77692;PMS5003;66984;47.404;18.836;2023-03-14T05:00:49;27.75;25.00;16.00
77692;PMS5003;66984;47.404;18.836;2023-03-14T05:01:52;25.00;23.75;15.25
77692;PMS5003;66984;47.404;18.836;2023-03-14T05:02:55;23.00;23.00;14.00
77692;PMS5003;66984;47.404;18.836;2023-03-14T05:03:58;27.75;25.00;16.00
77692;PMS5003;66984;47.404;18.836;2023-03-14T05:05:00;27.00;26.00;16.00
77692;PMS5003;66984;47.404;18.836;2023-03-14T05:06:03;28.00;25.25;16.00
77692;PMS5003;66984;47.404;18.836;2023-03-14T05:07:06;25.00;24.00;16.00
77692;PMS5003;66984;47.404;18.836;2023-03-14T05:09:45;21.00;20.50;14.00
77692;PMS5003;66984;47.404;18.836;2023-03-14T05:10:54;23.00;23.00;14.00
77692;PMS5003;66984;47.404;18.836;2023-03-14T05:11:58;19.00;19.00;12.75
77692;PMS5003;66984;47.404;18.836;2023-03-14T05:13:00;18.50;17.25;9.25
77692;PMS5003;66984;47.404;18.836;2023-03-14T05:14:03;21.00;20.00;11.50
77692;PMS5003;66984;47.404;18.836;2023-03-14T05:15:06;21.25;19.00;14.00
77692;PMS5003;66984;47.404;18.836;2023-03-14T05:16:10;18.00;18.00;10.00
77692;PMS5003;66984;47.404;18.836;2023-03-14T05:17:13;20.00;19.00;10.00
77692;PMS5003;66984;47.404;18.836;2023-03-14T05:18:16;21.00;21.00;11.50
77692;PMS5003;66984;47.404;18.836;2023-03-14T05:19:20;17.50;17.50;9.25
77692;PMS5003;66984;47.404;18.836;2023-03-14T05:20:22;15.50;15.00;9.00
77692;PMS5003;66984;47.404;18.836;2023-03-14T05:21:25;18.00;15.50;9.00
77692;PMS5003;66984;47.404;18.836;2023-03-14T05:22:28;23.50;20.50;12.00
77692;PMS5003;66984;47.404;18.836;2023-03-14T05:23:30;24.00;23.00;14.00
77692;PMS5003;66984;47.404;18.836;2023-03-14T05:24:33;27.75;24.75;15.75
77692;PMS5003;66984;47.404;18.836;2023-03-14T05:25:36;28.25;24.25;15.50
77692;PMS5003;66984;47.404;18.836;2023-03-14T05:26:38;24.25;23.00;14.75
77692;PMS5003;66984;47.404;18.836;2023-03-14T05:27:41;25.00;23.00;16.00
77692;PMS5003;66984;47.404;18.836;2023-03-14T05:28:44;27.00;24.50;16.00
77692;PMS5003;66984;47.404;18.836;2023-03-14T05:29:46;23.00;21.50;15.00
77692;PMS5003;66984;47.404;18.836;2023-03-14T05:30:49;18.50;17.00;10.00
77692;PMS5003;66984;47.404;18.836;2023-03-14T05:31:52;20.00;18.00;10.00
77692;PMS5003;66984;47.404;18.836;2023-03-14T05:32:55;16.00;16.00;8.00
77692;PMS5003;66984;47.404;18.836;2023-03-14T05:33:57;16.25;16.25;8.00
77692;PMS5003;66984;47.404;18.836;2023-03-14T05:35:00;19.00;19.00;10.00
77692;PMS5003;66984;47.404;18.836;2023-03-14T05:36:03;19.00;18.00;8.25
77692;PMS5003;66984;47.404;18.836;2023-03-14T05:37:06;19.00;18.75;8.25
77692;PMS5003;66984;47.404;18.836;2023-03-14T05:38:09;16.00;16.00;8.00
77692;PMS5003;66984;47.404;18.836;2023-03-14T05:39:12;19.00;18.00;9.25
77692;PMS5003;66984;47.404;18.836;2023-03-14T05:40:14;20.50;19.00;12.00
77692;PMS5003;66984;47.404;18.836;2023-03-14T05:41:17;20.00;17.25;10.00
77692;PMS5003;66984;47.404;18.836;2023-03-14T05:42:20;19.00;17.00;10.00
77692;PMS5003;66984;47.404;18.836;2023-03-14T05:43:23;19.75;18.00;10.00
77692;PMS5003;66984;47.404;18.836;2023-03-14T05:44:25;19.75;19.00;10.00
77692;PMS5003;66984;47.404;18.836;2023-03-14T05:45:28;18.00;18.00;10.00
77692;PMS5003;66984;47.404;18.836;2023-03-14T05:46:31;18.00;18.00;10.00
77692;PMS5003;66984;47.404;18.836;2023-03-14T05:47:34;20.50;19.00;11.00
77692;PMS5003;66984;47.404;18.836;2023-03-14T05:48:36;20.50;19.00;9.75
77692;PMS5003;66984;47.404;18.836;2023-03-14T05:49:39;21.00;20.25;11.00
77692;PMS5003;66984;47.404;18.836;2023-03-14T05:50:42;21.00;20.25;12.00
77692;PMS5003;66984;47.404;18.836;2023-03-14T05:51:45;24.50;21.00;13.00
77692;PMS5003;66984;47.404;18.836;2023-03-14T05:52:47;22.25;20.75;14.50
77692;PMS5003;66984;47.404;18.836;2023-03-14T05:53:50;24.50;20.75;14.00
77692;PMS5003;66984;47.404;18.836;2023-03-14T05:54:53;24.25;23.00;14.75
77692;PMS5003;66984;47.404;18.836;2023-03-14T05:56:03;22.50;21.50;15.00
77692;PMS5003;66984;47.404;18.836;2023-03-14T05:57:06;25.00;24.00;15.00
77692;PMS5003;66984;47.404;18.836;2023-03-14T05:58:09;23.00;23.00;15.00
77692;PMS5003;66984;47.404;18.836;2023-03-14T05:59:11;20.50;20.50;15.00
77692;PMS5003;66984;47.404;18.836;2023-03-14T06:00:16;21.50;20.50;15.00
77692;PMS5003;66984;47.404;18.836;2023-03-14T06:01:19;21.00;21.00;14.00
77692;PMS5003;66984;47.404;18.836;2023-03-14T06:02:21;20.25;20.00;13.00
77692;PMS5003;66984;47.404;18.836;2023-03-14T06:03:24;21.00;20.50;11.00
77692;PMS5003;66984;47.404;18.836;2023-03-14T06:04:27;19.25;19.25;10.00
77692;PMS5003;66984;47.404;18.836;2023-03-14T06:05:30;20.75;20.00;10.00
77692;PMS5003;66984;47.404;18.836;2023-03-14T06:06:32;20.00;19.25;10.00
77692;PMS5003;66984;47.404;18.836;2023-03-14T06:07:35;18.25;17.25;10.00
77692;PMS5003;66984;47.404;18.836;2023-03-14T06:08:38;19.00;17.00;9.00
77692;PMS5003;66984;47.404;18.836;2023-03-14T06:09:40;21.00;19.00;8.00
77692;PMS5003;66984;47.404;18.836;2023-03-14T06:10:43;20.00;18.00;9.00
77692;PMS5003;66984;47.404;18.836;2023-03-14T06:11:46;20.50;19.50;9.50
77692;PMS5003;66984;47.404;18.836;2023-03-14T06:12:48;21.00;20.00;10.50
77692;PMS5003;66984;47.404;18.836;2023-03-14T06:13:51;21.00;20.00;11.00
77692;PMS5003;66984;47.404;18.836;2023-03-14T06:14:54;21.50;21.50;11.00
77692;PMS5003;66984;47.404;18.836;2023-03-14T06:15:56;19.00;18.00;10.00
77692;PMS5003;66984;47.404;18.836;2023-03-14T06:16:59;18.25;18.00;10.50
77692;PMS5003;66984;47.404;18.836;2023-03-14T06:18:02;19.00;18.00;10.00
77692;PMS5003;66984;47.404;18.836;2023-03-14T06:19:05;18.00;18.00;10.00
77692;PMS5003;66984;47.404;18.836;2023-03-14T06:20:08;20.00;18.00;10.50
77692;PMS5003;66984;47.404;18.836;2023-03-14T06:21:12;20.25;18.50;10.00
77692;PMS5003;66984;47.404;18.836;2023-03-14T06:22:14;18.25;18.00;9.75
77692;PMS5003;66984;47.404;18.836;2023-03-14T06:23:17;20.00;20.00;9.50
77692;PMS5003;66984;47.404;18.836;2023-03-14T06:24:20;18.00;18.00;8.25
77692;PMS5003;66984;47.404;18.836;2023-03-14T06:25:23;19.00;19.00;10.00
77692;PMS5003;66984;47.404;18.836;2023-03-14T06:26:25;18.50;18.50;10.25
77692;PMS5003;66984;47.404;18.836;2023-03-14T06:27:28;18.00;18.00;11.00
77692;PMS5003;66984;47.404;18.836;2023-03-14T06:28:31;18.00;18.00;11.00
77692;PMS5003;66984;47.404;18.836;2023-03-14T06:29:34;18.50;16.50;7.75
77692;PMS5003;66984;47.404;18.836;2023-03-14T06:30:36;19.00;18.00;8.50
77692;PMS5003;66984;47.404;18.836;2023-03-14T06:31:39;20.00;19.00;9.00
77692;PMS5003;66984;47.404;18.836;2023-03-14T06:32:42;20.25;18.25;8.00
77692;PMS5003;66984;47.404;18.836;2023-03-14T06:33:45;19.00;17.00;9.00
77692;PMS5003;66984;47.404;18.836;2023-03-14T06:34:48;19.00;18.00;8.00
77692;PMS5003;66984;47.404;18.836;2023-03-14T06:35:50;19.00;18.00;8.75
77692;PMS5003;66984;47.404;18.836;2023-03-14T06:36:53;17.00;17.00;9.00
77692;PMS5003;66984;47.404;18.836;2023-03-14T06:37:58;19.75;19.50;9.50
77692;PMS5003;66984;47.404;18.836;2023-03-14T06:39:01;21.00;21.00;10.00
77692;PMS5003;66984;47.404;18.836;2023-03-14T06:40:05;19.00;17.75;8.00
77692;PMS5003;66984;47.404;18.836;2023-03-14T06:41:09;18.75;17.00;8.00
77692;PMS5003;66984;47.404;18.836;2023-03-14T06:42:12;18.00;17.00;8.75
77692;PMS5003;66984;47.404;18.836;2023-03-14T06:43:15;17.25;17.25;7.75
77692;PMS5003;66984;47.404;18.836;2023-03-14T06:44:17;19.25;19.00;9.00
77692;PMS5003;66984;47.404;18.836;2023-03-14T06:45:20;21.00;18.00;11.00
77692;PMS5003;66984;47.404;18.836;2023-03-14T06:46:23;20.00;17.00;11.50
77692;PMS5003;66984;47.404;18.836;2023-03-14T06:47:26;19.00;16.75;11.00
77692;PMS5003;66984;47.404;18.836;2023-03-14T06:48:29;18.00;18.00;11.00
77692;PMS5003;66984;47.404;18.836;2023-03-14T06:49:32;17.50;17.50;11.00
77692;PMS5003;66984;47.404;18.836;2023-03-14T06:50:35;21.00;20.00;11.00
77692;PMS5003;66984;47.404;18.836;2023-03-14T06:51:38;20.25;19.25;11.00
77692;PMS5003;66984;47.404;18.836;2023-03-14T06:52:40;19.50;17.50;11.00
77692;PMS5003;66984;47.404;18.836;2023-03-14T06:53:48;19.00;18.00;11.00
77692;PMS5003;66984;47.404;18.836;2023-03-14T06:54:50;20.00;18.00;10.50
77692;PMS5003;66984;47.404;18.836;2023-03-14T06:55:53;19.00;17.00;8.00
77692;PMS5003;66984;47.404;18.836;2023-03-14T06:56:56;21.00;17.00;8.00
77692;PMS5003;66984;47.404;18.836;2023-03-14T06:57:58;20.00;19.00;9.00
77692;PMS5003;66984;47.404;18.836;2023-03-14T06:59:01;17.00;17.00;9.00
77692;PMS5003;66984;47.404;18.836;2023-03-14T07:00:04;19.00;19.00;9.75
77692;PMS5003;66984;47.404;18.836;2023-03-14T07:01:21;20.00;20.00;10.50